createdAt,value
2023-03-26T00:02:18.339Z,87.40
2023-03-26T00:07:46.751Z,109.38
2023-03-26T00:12:59.290Z,122.13
2023-03-26T00:18:29.105Z,89.07
2023-03-26T00:23:49.662Z,100.22
2023-03-26T00:29:10.224Z,76.85
2023-03-26T00:34:30.548Z,78.22
2023-03-26T00:39:50.018Z,74.55
2023-03-26T00:45:07.126Z,70.85
2023-03-26T00:50:25.307Z,61.13
2023-03-26T00:55:43.453Z,58.25
2023-03-26T01:01:06.141Z,54.85
2023-03-26T01:06:39.917Z,92.88
2023-03-26T01:12:10.168Z,144.45
2023-03-26T01:17:41.756Z,102.50
2023-03-26T01:23:09.068Z,72.03
2023-03-26T01:39:40.623Z,56.75
2023-03-26T01:45:04.700Z,53.58
2023-03-26T01:50:25.222Z,65.78
2023-03-26T02:01:17.902Z,76.88
2023-03-26T02:06:44.748Z,110.97
2023-03-26T02:12:15.056Z,109.80
2023-03-26T02:17:35.798Z,104.20
2023-03-26T02:22:56.273Z,105.90
2023-03-26T02:28:16.900Z,120.22
2023-03-26T02:40:34.978Z,114.78
2023-03-26T02:46:01.870Z,139.90
2023-03-26T02:51:33.358Z,119.95
2023-03-26T02:57:03.408Z,98.18
2023-03-26T03:02:34.518Z,85.28
2023-03-26T03:08:04.237Z,93.60
2023-03-26T03:13:36.922Z,101.55
2023-03-26T03:19:04.408Z,101.97
2023-03-26T03:24:26.153Z,75.78
2023-03-26T03:35:20.151Z,96.00
2023-03-26T03:40:48.949Z,95.25
2023-03-26T03:46:09.481Z,86.30
2023-03-26T03:51:29.057Z,79.35
2023-03-26T03:56:54.906Z,82.50
2023-03-26T04:02:31.107Z,93.65
2023-03-26T04:07:48.048Z,87.20
2023-03-26T04:13:24.585Z,90.78
2023-03-26T04:18:55.181Z,90.28
2023-03-26T04:24:13.334Z,94.90
2023-03-26T04:29:50.252Z,92.80
2023-03-26T04:35:19.817Z,107.72
2023-03-26T04:40:49.507Z,108.63
2023-03-26T04:46:18.289Z,99.03
2023-03-26T04:51:51.499Z,107.80
2023-03-26T04:57:29.929Z,101.45
2023-03-26T05:02:58.304Z,94.18
2023-03-26T05:08:19.967Z,100.78
2023-03-26T05:13:49.841Z,103.43
2023-03-26T05:19:07.887Z,91.80
2023-03-26T05:24:27.588Z,110.03
2023-03-26T05:29:48.082Z,82.28
2023-03-26T05:40:38.313Z,82.43
2023-03-26T05:46:00.418Z,84.65
2023-03-26T05:51:21.032Z,81.72
2023-03-26T05:56:52.837Z,122.78
2023-03-26T06:02:21.912Z,115.05
2023-03-26T06:07:50.062Z,88.22
2023-03-26T06:13:13.651Z,84.65
2023-03-26T06:18:31.937Z,89.07
2023-03-26T06:24:03.658Z,86.10
2023-03-26T06:29:37.337Z,114.05
2023-03-26T06:35:16.437Z,118.47
2023-03-26T06:40:37.597Z,130.30
2023-03-26T06:46:14.388Z,116.20
2023-03-26T06:51:43.684Z,103.07
2023-03-26T06:57:14.469Z,101.25
2023-03-26T07:02:46.021Z,125.15
2023-03-26T07:08:18.706Z,132.50
2023-03-26T07:13:51.098Z,125.53
2023-03-26T07:19:20.786Z,122.65
2023-03-26T07:24:38.856Z,114.22
2023-03-26T07:51:51.977Z,101.18
2023-03-26T08:19:29.456Z,18.85
2023-03-26T08:25:29.287Z,20.65
2023-03-26T08:30:50.124Z,22.92
2023-03-26T08:36:06.322Z,17.42
2023-03-26T08:41:42.572Z,15.50
2023-03-26T08:58:46.797Z,29.83
2023-03-26T09:26:44.425Z,18.25
2023-03-26T09:38:11.259Z,15.18
2023-03-26T09:44:07.814Z,20.75
2023-03-26T10:01:28.200Z,14.07
2023-03-26T10:12:40.625Z,19.00
2023-03-26T10:55:42.644Z,19.75
2023-03-26T11:01:17.274Z,26.52
2023-03-26T11:23:19.020Z,17.27
2023-03-26T11:34:16.895Z,16.90
2023-03-26T11:39:42.780Z,16.20
2023-03-26T11:45:08.159Z,17.48
2023-03-26T12:01:35.571Z,21.67
2023-03-26T12:07:12.553Z,21.58
2023-03-26T12:12:36.415Z,14.05
2023-03-26T12:17:58.464Z,19.23
2023-03-26T12:23:57.820Z,17.33
2023-03-26T12:29:20.579Z,25.13
2023-03-26T12:34:41.155Z,12.25
2023-03-26T12:40:18.204Z,15.48
2023-03-26T12:46:03.858Z,11.32
2023-03-26T13:14:06.255Z,9.73
2023-03-26T14:02:47.360Z,29.80
2023-03-26T14:08:33.002Z,27.77
2023-03-26T14:14:10.542Z,33.80
2023-03-26T14:51:42.206Z,23.38
2023-03-26T15:08:04.200Z,51.95
2023-03-26T15:19:47.147Z,31.13
2023-03-26T15:41:42.915Z,37.67
2023-03-26T15:47:04.786Z,44.63
2023-03-26T15:58:39.884Z,38.05
2023-03-26T16:04:14.079Z,37.72
2023-03-26T16:15:21.437Z,33.83
2023-03-26T16:20:52.832Z,31.25
2023-03-26T17:35:08.847Z,12.95
2023-03-26T17:41:01.464Z,11.80
2023-03-26T17:52:09.516Z,6.70
2023-03-26T18:03:25.126Z,11.27
2023-03-26T18:08:57.365Z,12.32
2023-03-26T18:14:56.288Z,15.50
2023-03-26T18:20:14.791Z,12.02
2023-03-26T18:25:37.334Z,8.50
2023-03-26T18:30:57.626Z,8.27
2023-03-26T18:36:17.945Z,12.15
2023-03-26T18:41:51.396Z,13.85
2023-03-26T18:47:12.186Z,11.63
2023-03-26T18:52:32.790Z,10.18
2023-03-26T18:57:53.352Z,9.68
2023-03-26T19:03:14.338Z,9.95
2023-03-26T19:08:34.744Z,9.48
2023-03-26T19:14:06.959Z,11.38
2023-03-26T19:19:29.319Z,12.13
2023-03-26T19:24:47.375Z,9.10
2023-03-26T19:30:08.207Z,11.15
2023-03-26T19:35:32.400Z,15.13
2023-03-26T19:40:53.603Z,9.23
2023-03-26T19:46:21.307Z,11.82
2023-03-26T19:57:05.763Z,10.27
2023-03-26T20:07:48.552Z,10.35
2023-03-26T20:13:07.412Z,11.80
2023-03-26T20:18:27.957Z,11.57
2023-03-26T20:23:46.344Z,9.80
2023-03-26T20:29:07.447Z,14.50
2023-03-26T20:34:33.032Z,14.02
2023-03-26T20:39:53.054Z,14.40
2023-03-26T20:50:50.244Z,14.88
2023-03-26T20:56:05.577Z,10.50
2023-03-26T21:01:26.347Z,15.77
2023-03-26T21:06:46.859Z,12.02
2023-03-26T21:12:10.712Z,15.05
2023-03-26T21:17:29.477Z,13.57
2023-03-26T21:28:42.553Z,9.93
2023-03-26T21:34:09.411Z,13.27
2023-03-26T21:39:27.879Z,14.68
2023-03-26T21:44:56.093Z,11.32
2023-03-26T21:50:14.222Z,13.25
2023-03-26T21:55:35.308Z,13.82
2023-03-26T22:01:34.475Z,14.18
2023-03-26T22:12:36.308Z,13.05
2023-03-26T22:17:58.928Z,12.90
2023-03-26T22:23:17.791Z,12.57
2023-03-26T22:28:38.364Z,12.43
2023-03-26T22:33:58.885Z,11.75
2023-03-26T22:39:19.456Z,14.38
2023-03-26T22:44:36.394Z,13.48
2023-03-26T22:50:04.238Z,13.60
2023-03-26T22:55:28.325Z,16.05
2023-03-26T23:00:49.584Z,13.40
2023-03-26T23:06:09.385Z,16.90
2023-03-26T23:11:29.989Z,16.23
2023-03-26T23:16:48.446Z,18.70
2023-03-26T23:22:08.947Z,21.85
2023-03-26T23:27:29.036Z,16.38
2023-03-26T23:32:46.207Z,16.83
2023-03-26T23:38:16.364Z,15.45
2023-03-26T23:43:36.473Z,13.35
2023-03-26T23:49:05.952Z,14.15
2023-03-26T23:54:26.497Z,13.00
2023-03-26T23:59:43.371Z,14.68
